»·PEaware :: N619PA C80-KMRY

N619PA :: C80-KMRY

FLIGHT INFORMATION

Flight Status: Arrived
Operator: Privately registered:
United States
More flights under this callsign
Pilot: Saso K. (7898)
Aircraft: SOCATA TBM-900
(TBM9)
More flights by this aircraft type
Origin: C80 New Coalinga Mun
United States
Destination: KMRY Monterey Peninsula
United States
More flights between these airports :: More routes between these airports
Route: ROM V137 SNS
File this flight plan on PilotEdge
Remarks:
Altitude:
(Current/Filed)
16,000ft
Speed:
(Current/Filed)
300kts
Departed: 01-Mar-18 01:34 PM
Arrived: 01-Mar-18 02:08 PM
Distance/Time
Traveled:
79nm/0:34
Distance/Time
To Go:
Arrived

Flight Plot

Page will automatically refresh every two minutes.

Flight plan parsing failed; only flown route is shown


Map Options




Map Legend


Flown Route
Filed Route
Departure Airport
Arrival Airport
Navaid (VOR, NDB)
Fix

Horizontal Profiles

Position Reports

Time Latitude Longitude Heading Altitude Ground
Speed
01-Mar-18 13:30 36.160666 -120.294389 128 609ft 0kts
01-Mar-18 13:31 36.160666 -120.294389 128 609ft 0kts
01-Mar-18 13:32 36.160666 -120.294389 128 609ft 0kts
01-Mar-18 13:33 36.160666 -120.294389 128 609ft 0kts
01-Mar-18 13:34 36.160666 -120.294389 128 609ft 0kts
01-Mar-18 13:35 36.160666 -120.294389 128 609ft 0kts
01-Mar-18 13:36 36.160619 -120.294305 119 609ft 3kts
01-Mar-18 13:37 36.161652 -120.293123 315 607ft 11kts
01-Mar-18 13:38 36.163200 -120.295336 310 611ft 0kts
01-Mar-18 13:39 36.165836 -120.299148 311 620ft 22kts
01-Mar-18 13:40 36.167637 -120.300092 134 625ft 0kts
01-Mar-18 13:41 36.152376 -120.280795 141 1379ft 138kts
01-Mar-18 13:42 36.119837 -120.246712 143 3286ft 158kts
01-Mar-18 13:43 36.088641 -120.212200 143 5460ft 153kts
01-Mar-18 13:44 36.057850 -120.175126 142 7258ft 161kts
01-Mar-18 13:45 36.026043 -120.134496 142 9041ft 172kts
01-Mar-18 13:46 35.991883 -120.094721 182 11019ft 164kts
01-Mar-18 13:47 35.986530 -120.136310 280 12980ft 165kts
01-Mar-18 13:48 36.001784 -120.188215 280 14764ft 167kts
01-Mar-18 13:49 36.016117 -120.242438 259 16037ft 183kts
01-Mar-18 13:50 36.019101 -120.308043 285 16056ft 234kts
01-Mar-18 13:51 36.044983 -120.383619 286 16031ft 246kts
01-Mar-18 13:52 36.070941 -120.459507 286 16017ft 249kts
01-Mar-18 13:53 36.097223 -120.536505 286 16011ft 249kts
01-Mar-18 13:54 36.123636 -120.614047 286 16011ft 249kts
01-Mar-18 13:55 36.152781 -120.684744 296 16022ft 256kts
01-Mar-18 13:56 36.184299 -120.740654 296 16019ft 257kts
01-Mar-18 13:57 36.223323 -120.810174 296 16018ft 257kts
01-Mar-18 13:58 36.262367 -120.879856 296 16018ft 257kts
01-Mar-18 13:59 36.300692 -120.948346 296 16017ft 257kts
01-Mar-18 14:00 36.340724 -121.020035 296 15994ft 257kts
01-Mar-18 14:01 36.380862 -121.092214 297 15663ft 267kts
01-Mar-18 14:02 36.423324 -121.168608 297 14394ft 276kts
01-Mar-18 14:03 36.465396 -121.244373 298 12950ft 279kts
01-Mar-18 14:04 36.505397 -121.316437 298 11593ft 283kts
01-Mar-18 14:05 36.549290 -121.395573 299 9732ft 287kts
01-Mar-18 14:06 36.569041 -121.474564 225 7472ft 231kts
01-Mar-18 14:07 36.513809 -121.497149 193 5675ft 206kts
01-Mar-18 14:08 36.493972 -121.554474 262 5023ft 199kts
01-Mar-18 14:09 36.511196 -121.620825 287 4683ft 202kts
01-Mar-18 14:10 36.532228 -121.683067 286 4126ft 190kts
01-Mar-18 14:11 36.550914 -121.737829 285 3388ft 150kts
01-Mar-18 14:12 36.563075 -121.773691 284 2549ft 112kts
01-Mar-18 14:13 36.576730 -121.813953 285 1053ft 116kts
01-Mar-18 14:14 36.587416 -121.845549 283 189ft 73kts
01-Mar-18 14:15 36.589926 -121.850681 343 161ft 0kts
01-Mar-18 14:16 36.590609 -121.850142 74 157ft 6kts
01-Mar-18 14:17 36.591157 -121.848738 216 155ft 1kts
01-Mar-18 14:18 36.591119 -121.848749 180 155ft 0kts
01-Mar-18 14:19 36.591119 -121.848749 180 155ft 0kts
01-Mar-18 14:20 36.591119 -121.848749 180 155ft 0kts
01-Mar-18 14:21 36.591119 -121.848749 180 155ft 0kts
01-Mar-18 14:22 36.591119 -121.848749 180 155ft 0kts
01-Mar-18 14:23 36.591119 -121.848749 180 155ft 0kts
01-Mar-18 14:24 36.591119 -121.848749 180 155ft 0kts
01-Mar-18 14:25 36.591119 -121.848749 180 155ft 0kts
01-Mar-18 14:26 36.591119 -121.848749 180 155ft 0kts
01-Mar-18 14:27 36.591117 -121.848749 180 155ft 0kts

Navigation Log

Ident Type
Flight plan parsing failed, navigation log unavailable